KGXY/GXY METAR and TAF weather

Enter ICAO airport designator
Station Type Date Time Source
KGXY METAR 2022/12/08 11:56 UTC NOAA

KGXY 081156Z AUTO 28006KT 10SM SCT120 M08/M09 A2999 RMK AO2 SLP193 7//// T10781094 11044 21089 55005 FZRANO


Station Type Date Time Source
KGXY Decoded METAR 2022/12/08 11:56 UTC NOAA

Greeley, Greeley-Weld County Airport, CO, United States (KGXY) 40-26N 104-38W
Dec 08, 2022 - 06:56 AM EST / 2022.12.08 1156 UTC
Wind: from the W (280 degrees) at 7 MPH (6 KT):0
Visibility: 10 mile(s):0
Sky conditions: partly cloudy
Temperature: 18.0 F (-7.8 C)
Windchill: 8 F (-13 C):1
Dew Point: 15.1 F (-9.4 C)
Relative Humidity: 88%
Pressure (altimeter): 29.99 in. Hg (1015 hPa)
Pressure tendency: 0.01 inches (0.5 hPa) lower than three hours ago
ob: KGXY 081156Z AUTO 28006KT 10SM SCT120 M08/M09 A2999 RMK AO2 SLP193 7//// T10781094 11044 21089 55005 FZRANO
cycle: 12

Station Type Date Time Source
KGXY TAF UTC NOAA

Error!

Example: see airport list